Meteo Giornale » Osservazioni meteo Tajikistan » Khudzhand
ore: 23:30 - Osservazioni Meteo Khudzhand
Lat. 40° 13' N Lon. 69° 42' E Alt. 442 metri s.l.m.
23 °C
Sereno
Temp. 24 Ore
19 °C
32 °C
Sud-Ovest
32.4 Km/h
Dew point 2 °C
Umidità 25 %
Visibilità 10 Km
Il sole sorge alle ore 05:48
Il sole tramonta alle ore 18:53
| Data e Ora | Cielo e Fenomeni | T °C | DP °C | Um. % | Pres. hPa | Vis. km | Vento km/h | |
|---|---|---|---|---|---|---|---|---|
| Ieri h: 23:30 | Sereno | 23 | 2 | 25 | 1013 | 10 | SO 32.4 | |
| Ieri h: 23:00 | Sereno | 24 | 3 | 25 | 1012 | 10 | SO 28.8 | |
| Ieri h: 22:30 | Sereno | 24 | 5 | 29 | 1012 | 10 | SO 25.2 | |
| Ieri h: 22:00 | Sereno | 24 | 8 | 35 | 1012 | 10 | SO 21.6 | |
| Ieri h: 21:30 | Sereno | 24 | 9 | 38 | 1012 | 10 | SO 21.6 | |
| Ieri h: 21:00 | Sereno | 25 | 9 | 36 | 1012 | 10 | O/SO 25.2 | |
| Ieri h: 20:30 | Sereno | 26 | 10 | 36 | 1012 | 10 | SO 21.6 | |
| Ieri h: 20:00 | Sereno | 26 | 10 | 36 | 1012 | 10 | O/SO 21.6 | |
| Ieri h: 19:30 | Sereno | 27 | 11 | 36 | 1012 | 10 | SO 25.2 | |
| Ieri h: 19:00 | Sereno | 27 | 11 | 36 | 1011 | 10 | O/SO 25.2 | |
| Ieri h: 18:30 | Sereno | 29 | 11 | 32 | 1011 | 10 | O/SO 28.8 | |
| Ieri h: 18:00 | Sereno | 30 | 12 | 33 | 1011 | 10 | O/SO 36 | |
| Ieri h: 17:30 | Sereno | 31 | 13 | 33 | 1011 | 10 | O/SO 36 | |
| Ieri h: 17:00 | Sereno | 31 | 13 | 33 | 1011 | 10 | O/SO 36 | |
| Ieri h: 16:30 | Sereno | 32 | 13 | 31 | 1011 | 10 | O/SO 32.4 | |
| Ieri h: 16:00 | Sereno | 32 | 13 | 31 | 1010 | 10 | O/SO 36 | |
| Ieri h: 15:30 | Sereno | 31 | 14 | 35 | 1010 | 10 | O/SO 36 | |
| Ieri h: 15:00 | Sereno | 31 | 15 | 37 | 1011 | 10 | O/SO 39.6 | |
| Ieri h: 14:30 | Sereno | 31 | 13 | 33 | 1011 | 10 | O/SO 43.2 | |
| Ieri h: 14:00 | Sereno | 31 | 13 | 33 | 1011 | 10 | O/SO 43.2 | |
| Ieri h: 13:30 | Sereno | 31 | 13 | 33 | 1011 | 10 | O/SO 43.2 | |
| Ieri h: 13:00 | Sereno | 30 | 13 | 35 | 1011 | 10 | O/SO 43.2 | |
| Ieri h: 12:30 | Sereno | 30 | 13 | 35 | 1011 | 10 | O/SO 43.2 | |
| Ieri h: 12:00 | Sereno | 30 | 14 | 37 | 1011 | 10 | O/SO 39.6 | |
| Ieri h: 11:30 | Sereno | 30 | 14 | 37 | 1011 | 10 | O/SO 39.6 | |
| Ieri h: 11:00 | Sereno | 30 | 14 | 37 | 1011 | 10 | O/SO 36 | |
| Ieri h: 10:30 | Sereno | 30 | 14 | 37 | 1011 | 10 | O/SO 28.8 | |
| Ieri h: 10:00 | Sereno | 29 | 14 | 39 | 1011 | 10 | O 28.8 | |
| Ieri h: 09:30 | Sereno | 29 | 15 | 42 | 1011 | 10 | O/SO 28.8 | |
| Ieri h: 09:00 | Sereno | 28 | 14 | 42 | 1011 | 10 | O/SO 25.2 | |
| Ieri h: 08:30 | Sereno | 29 | 17 | 48 | 1010 | 10 | N 7.2 | |
| Ieri h: 08:00 | Sereno | 27 | 17 | 54 | 1010 | 10 | N 0 | |
| Ieri h: 07:30 | Sereno | 25 | 17 | 61 | 1010 | 10 | N 3.6 | |
| Ieri h: 07:00 | Sereno | 22 | 15 | 64 | 1010 | 10 | N 7.2 | |
| Ieri h: 06:30 | Sereno | 20 | 14 | 68 | 1010 | 10 | N 7.2 | |
| Ieri h: 06:00 | Sereno | 19 | 13 | 68 | 1009 | 10 | N 7.2 | |
| Ieri h: 05:30 | Sereno | 19 | 13 | 68 | 1009 | 10 | N 0 | |
| Ieri h: 05:00 | Sereno | 20 | 13 | 64 | 1009 | 10 | N 0 | |
| Ieri h: 04:30 | Sereno | 20 | 13 | 64 | 1009 | 10 | N 3.6 | |
| Ieri h: 04:00 | Sereno | 21 | 13 | 60 | 1009 | 10 | N 7.2 | |
| Ieri h: 03:30 | Sereno | 21 | 13 | 60 | 1009 | 10 | N 3.6 | |
| Ieri h: 03:00 | Sereno | 21 | 13 | 60 | 1009 | 10 | S 10.8 | |
| Ieri h: 02:30 | Sereno | 21 | 13 | 60 | 1008 | 10 | S 10.8 | |
| Ieri h: 02:00 | Sereno | 24 | 13 | 50 | 1008 | 10 | N 0 | |
| Ieri h: 01:30 | Sereno | 25 | 11 | 41 | 1008 | 10 | N 7.2 | |
| Ieri h: 01:00 | Sereno | 25 | 12 | 44 | 1008 | 10 | O/SO 10.8 | |



